x

8461490 - New London, Ct (nlnc3) Weather Station

11:54 - Tue 4th Aug 2015 All times are EDT. -4 hours from GMT.

  • Wind
    9mph, 16mph gusts
  • Sea Temp 73°f
  • Ar Temp 80°f
  • Sea Pressure 1009.9mb
  • 8461490 - New London, Ct
  • 8461490 - New London, Ct

More Historic Weather Station data

Upgrade to MSW Pro to gain access to the past 30 days of data for over 8000 Wavebouys and Weather Stations around the globe.

Join Pro

Comparision Forecast

View Surf forecast
   
Ter 08/04 11:54 9 16 mph 1009.9mb 73f 80f
11:48 10 16 mph 1009.9mb 74f 81f
11:42 13 17 mph 1009.9mb 74f 80f
11:36 10 15 mph 1010mb 74f 80f
11:30 10 16 mph 1009.9mb 74f 80f
11:24 9 15 mph 1010mb 73f 79f
11:18 8 14 mph 1010mb 73f 80f
11:12 13 16 mph 1010.1mb 73f 79f
11:06 7 14 mph 1010mb 73f 80f
11:00 10 14 mph 1010mb 73f 79f
10:54 8 17 mph 1009.9mb 73f 79f
10:48 10 14 mph 1010.1mb 72f 78f
10:42 9 15 mph 1010mb 72f 79f
10:36 8 14 mph 1009.9mb 71f 79f
10:30 6 11 mph 1009.8mb 71f 78f
10:24 3 6 mph 1009.8mb 72f 79f
10:18 5 7 mph 1009.9mb 71f 79f
10:12 3 9 mph 1009.9mb 71f 78f
10:06 6 8 mph 1009.9mb 71f 77f
10:00 5 8 mph 1009.8mb 71f 77f
9:54 7 9 mph 1009.9mb 71f 76f
9:48 2 7 mph 1010mb 70f 77f
9:42 6 9 mph 1009.9mb 71f 76f
9:36 5 10 mph 1009.9mb 71f 76f
9:30 6 9 mph 1009.9mb - 75f
9:24 6 9 mph 1009.9mb - 75f
9:18 6 10 mph 1009.9mb 73f 75f
9:12 5 11 mph 1009.9mb 72f 75f
9:06 6 8 mph 1009.9mb 72f 75f
9:00 3 9 mph 1010.1mb 73f 75f
8:54 3 7 mph 1010.1mb 73f 74f
8:48 5 7 mph 1010.2mb 73f 74f
8:42 6 9 mph 1010.2mb 73f 74f
8:36 6 8 mph 1010.2mb 74f 74f
8:30  -  mph 1010.2mb 74f 74f
8:24  -  mph 1010.2mb 74f 74f
8:18 7 10 mph 1010.1mb 74f 74f
8:12 8 9 mph 1009.9mb 73f 74f
8:06 7 9 mph 1010mb 73f 73f
8:00 6 10 mph 1009.9mb 74f 72f
7:54 6 9 mph 1009.8mb 74f 72f
7:48 6 10 mph 1009.6mb 74f 72f
7:42 7 9 mph 1009.4mb 74f 72f
7:36 7 9 mph 1009.4mb 74f 72f
7:30 3 7 mph 1009.3mb 74f 72f
7:24 3 6 mph 1008.9mb 73f 72f
7:18 3 6 mph 1008.5mb 73f 72f
7:12 3 6 mph 1008.5mb 72f 72f
7:06 3 7 mph 1008.6mb 72f 72f
7:00 3 7 mph 1008.5mb 71f 72f
6:54 6 9 mph 1008.6mb 73f 72f
6:48 7 9 mph 1008.8mb 74f 72f
6:42 6 14 mph 1008.7mb 74f 72f
6:36 7 14 mph 1008.8mb 74f 71f
6:30 8 15 mph 1009.6mb 74f 71f
6:24 8 13 mph 1009.5mb 74f 70f
6:18 16 32 mph 1009.6mb 74f 69f
6:12 13 17 mph 1009.9mb 74f 76f
6:06 9 17 mph 1009.5mb 74f 76f
6:00 8 20 mph 1009.3mb 74f 76f
5:54 10 14 mph 1009.1mb 74f 76f
5:48 7 9 mph 1008.7mb 74f 76f
5:42 9 15 mph 1008.6mb 73f 76f
5:36 10 13 mph 1008.7mb 73f 76f
5:30 6 9 mph 1008.7mb 73f 76f
5:24 6 7 mph 1008.6mb 72f 76f
5:18 5 7 mph 1008.8mb 72f 77f
5:12 2 6 mph 1009mb 72f 77f
5:06 5 7 mph 1009.1mb 73f 76f
5:00 5 6 mph 1009.2mb 73f 77f
4:54 1 5 mph 1009.1mb 73f 76f
4:48 2 5 mph 1009.1mb 73f 76f
4:42 6 7 mph 1009.1mb 73f 76f
4:36 5 9 mph 1009.1mb 73f 76f
4:30 8 11 mph 1009.1mb 73f 76f
4:24 7 10 mph 1009mb 73f 76f
4:18 6 8 mph 1008.9mb 73f 76f
4:12 5 8 mph 1008.8mb 73f 76f
4:06 6 10 mph 1008.9mb 73f 76f
4:00 5 10 mph 1008.9mb 73f 76f
3:54 6 9 mph 1008.8mb 73f 76f
3:48 6 9 mph 1008.8mb 73f 76f
3:42 6 8 mph 1008.7mb 73f 76f
3:36 3 6 mph 1008.8mb 73f 76f
3:30 3 6 mph 1008.7mb 73f 76f
3:24 5 6 mph 1008.8mb 73f 76f
3:18 5 8 mph 1008.9mb 73f 76f
3:12 5 8 mph 1008.8mb 73f 76f
3:06 5 7 mph 1008.9mb 73f 76f
3:00 3 8 mph 1008.9mb 73f 76f
2:54 3 5 mph 1008.9mb 73f 76f
2:48 5 8 mph 1009mb 73f 76f
2:42 2 6 mph 1009mb 73f 76f
2:36 5 8 mph 1009mb 73f 76f
2:30 6 9 mph 1009.1mb 73f 76f
2:24 5 7 mph 1009mb 73f 76f
2:18 3 6 mph 1009mb 73f 76f
2:12 6 7 mph 1009.1mb 72f 76f
2:06 5 7 mph 1009mb 72f 76f
2:00 5 6 mph 1008.9mb 72f 76f
1:54 3 7 mph 1008.8mb 72f 76f
1:48 5 8 mph 1008.8mb 72f 76f
1:42 3 8 mph 1008.7mb 73f 76f
1:36 3 7 mph 1008.7mb 73f 76f
1:30 5 10 mph 1008.7mb 73f 76f
1:24 6 10 mph 1008.8mb 73f 76f
1:18 6 10 mph 1008.8mb 73f 76f
1:12 6 10 mph 1008.8mb 73f 76f
1:06 6 8 mph 1008.9mb 73f 76f
1:00 6 8 mph 1008.9mb 73f 76f
12:54 6 10 mph 1008.8mb 73f 76f
12:48 8 14 mph 1008.9mb 73f 76f
12:42 7 10 mph 1008.9mb 73f 77f
12:36 8 13 mph 1009mb 73f 77f
12:30 9 11 mph 1008.9mb 73f 77f
12:24 7 10 mph 1008.9mb 73f 77f
12:18 8 11 mph 1008.9mb 73f 76f
12:12 9 11 mph 1008.9mb 73f 76f
12:06 8 9 mph 1008.8mb 73f 76f
12:00 6 9 mph 1008.9mb 73f 76f
Seg 08/03 11:54 7 10 mph 1008.9mb 72f 76f
11:48 6 10 mph 1008.8mb 72f 76f
11:42 6 8 mph 1008.8mb 73f 76f
11:36 3 9 mph 1008.8mb 73f 76f
11:30 5 8 mph 1008.9mb 73f 76f
11:24 6 9 mph 1008.8mb 73f 76f
11:18 5 8 mph 1008.8mb 73f 76f
11:12 6 11 mph 1008.8mb 73f 76f
11:06 7 14 mph 1008.8mb 73f 77f
11:00 7 11 mph 1008.7mb 73f 77f
10:54 9 16 mph 1008.7mb 73f 77f
10:48 8 14 mph 1008.7mb 73f 77f
10:42 9 14 mph 1008.8mb 74f 77f
10:36 8 11 mph 1008.8mb 74f 77f
10:30 9 11 mph 1008.8mb 74f 77f
10:24 8 14 mph 1008.7mb 74f 77f
10:18 7 15 mph 1008.8mb 74f 77f
10:12 9 16 mph 1008.8mb 74f 77f
10:06 10 14 mph 1008.8mb 74f 77f
10:00 9 13 mph 1008.7mb 73f 77f
9:54 9 13 mph 1008.8mb 74f 77f
9:48 8 13 mph 1008.7mb 73f 77f
9:42 7 14 mph 1008.7mb 73f 77f
9:36 8 14 mph 1008.6mb 73f 77f
9:30 7 16 mph 1008.6mb 72f 77f
9:24 8 11 mph 1008.6mb 73f 77f
9:18 9 14 mph 1008.7mb 73f 77f
9:12 6 11 mph 1008.6mb 73f 78f
9:06 8 13 mph 1008.4mb 74f 77f
9:00 7 11 mph 1008.4mb 74f 77f
8:54 8 14 mph 1008.4mb 74f 77f
8:48 8 13 mph 1008.4mb 74f 77f
8:42 7 11 mph 1008.3mb 73f 77f
8:36 7 10 mph 1008.4mb 73f 77f
8:30 7 11 mph 1008.4mb 73f 77f
8:24 7 15 mph 1008.3mb 74f 77f
8:18 9 11 mph 1008.4mb 74f 77f
8:12 10 15 mph 1008.3mb 74f 78f
8:06 8 13 mph 1008.3mb 74f 77f
8:00 10 11 mph 1008.1mb 74f 77f
7:54 9 15 mph 1008.1mb 74f 77f
7:48 10 14 mph 1008.2mb 74f 78f
7:42 10 15 mph 1008.2mb 74f 78f
7:36 9 13 mph 1008.2mb 74f 78f
7:30 11 13 mph 1008.1mb 74f 78f
7:24 9 11 mph 1008.1mb 74f 78f
7:18 9 14 mph 1008mb 74f 79f
7:12 9 14 mph 1008mb 74f 79f
7:06 8 15 mph 1008mb 74f 79f
7:00 8 13 mph 1007.9mb 74f 79f
6:54 10 16 mph 1007.9mb 74f 79f
6:48 8 13 mph 1007.8mb 74f 80f
6:42 8 14 mph 1007.8mb 74f 80f
6:36 8 15 mph 1007.8mb 74f 80f
6:30 11 17 mph 1008mb 74f 81f
6:24 10 14 mph 1008mb 74f 80f
6:18 9 14 mph 1008mb 74f 80f
6:12 10 14 mph 1007.9mb 74f 81f
6:06 9 17 mph 1007.9mb 74f 81f
6:00 13 17 mph 1008.1mb 75f 81f
5:54 11 20 mph 1008.2mb 74f 81f
5:48 15 23 mph 1008.1mb 74f 80f
5:42 13 17 mph 1008.2mb 74f 81f
5:36 13 17 mph 1008.1mb 74f 80f
5:30 15 22 mph 1008.1mb 74f 80f
5:24 14 20 mph 1008.3mb 72f 81f
5:18 15 21 mph 1008.3mb 73f 80f
5:12 15 21 mph 1008.2mb 72f 80f
5:06 14 18 mph 1008.2mb 73f 80f
5:00 16 20 mph 1008.1mb 73f 80f
4:54 15 20 mph 1008.1mb 72f 80f
4:48 15 21 mph 1008.1mb 72f 81f
4:42 15 18 mph 1008.1mb 72f 81f
4:36 15 22 mph 1008.2mb 72f 81f
4:30 17 23 mph 1008.2mb 72f 81f
4:24 15 17 mph 1008.2mb 73f 80f
4:18 13 16 mph 1008.1mb 73f 79f
4:12 11 15 mph 1008.3mb 73f 79f
4:06 13 18 mph 1008.3mb 73f 79f
4:00 14 16 mph 1008.3mb 73f 79f
3:54 11 15 mph 1008.4mb 74f 79f
3:48 14 16 mph 1008.4mb 75f 79f
3:42 11 14 mph 1008.4mb 75f 79f
3:36 11 14 mph 1008.4mb 74f 79f
3:30 11 14 mph 1008.3mb 75f 79f
3:24 13 15 mph 1008.4mb 75f 79f
3:18 13 15 mph 1008.4mb 74f 79f
3:12 14 15 mph 1008.5mb 74f 79f
3:06 14 17 mph 1008.5mb 74f 80f
3:00 11 16 mph 1008.5mb 74f 80f
2:54 11 15 mph 1008.6mb 74f 80f
2:48 14 16 mph 1008.6mb 75f 80f
2:42 13 20 mph 1008.6mb 75f 80f
2:36 13 16 mph 1008.6mb 75f 80f
2:30 13 15 mph 1008.6mb 74f 81f
2:24 11 15 mph 1008.6mb 74f 81f
2:18 11 14 mph 1008.7mb 73f 81f
2:12 11 16 mph 1008.8mb 73f 82f
2:06 11 16 mph 1008.8mb 72f 82f
2:00 11 14 mph 1008.9mb 72f 82f
1:54 10 15 mph 1009mb 72f 82f
1:48 11 14 mph 1009.1mb 71f 82f
1:42 10 14 mph 1009.2mb 71f 81f
1:36 9 13 mph 1009.2mb 71f 82f
1:30 8 14 mph 1009.2mb 71f 82f
1:24 9 15 mph 1009.3mb 72f 85f
1:18 9 15 mph 1009.3mb 72f 85f
1:12 10 16 mph 1009.4mb 71f 84f
1:06 9 13 mph 1009.4mb 71f 84f
1:00 7 14 mph 1009.5mb 71f 83f
12:54 9 14 mph 1009.5mb 71f 83f
12:48 9 14 mph 1009.5mb 71f 82f
12:42 10 14 mph 1009.6mb 71f 85f
12:36 9 14 mph 1009.5mb 71f 84f
12:30 9 15 mph 1009.5mb 71f 84f
12:24 10 16 mph 1009.6mb 71f 83f
12:18 6 15 mph 1009.6mb 71f 84f
12:12 8 13 mph 1009.8mb 71f 84f
12:06 5 11 mph 1009.7mb 71f 84f
12:00 8 13 mph 1009.9mb 71f 83f
11:54 10 15 mph 1010mb 70f 83f
11:48 7 15 mph 1010mb 71f 83f
11:42 10 15 mph 1010.1mb 71f 83f
11:36 10 15 mph 1010.1mb 71f 83f
11:30 6 14 mph 1010.2mb 72f 84f
11:24 9 13 mph 1010.2mb 72f 82f
11:18 9 14 mph 1010.3mb 73f 82f
11:12 9 11 mph 1010.3mb 74f 81f
11:06 10 15 mph 1010.4mb 74f 82f
11:00 9 15 mph 1010.4mb 74f 81f
10:54 8 14 mph 1010.2mb 74f 80f
10:48 9 14 mph 1010.3mb 73f 79f
10:42 7 11 mph 1010.2mb 73f 79f
10:36 9 14 mph 1010.1mb 73f 78f
10:30 9 14 mph 1010mb 73f 79f
10:24 7 11 mph 1009.9mb 72f 78f
10:18 9 11 mph 1009.9mb 72f 78f
10:12 8 11 mph 1010mb 72f 78f
10:06 8 11 mph 1010.1mb 71f 78f
10:00 8 11 mph 1010.1mb 71f 78f
9:54 8 10 mph 1010.2mb 71f 78f
9:48 8 13 mph 1010.2mb 71f 78f
9:42 10 14 mph 1010.2mb 70f 78f
9:36 7 9 mph 1010.3mb 70f 78f
9:30 8 11 mph 1010.2mb 70f 77f
9:24 8 11 mph 1010.3mb 70f 77f
9:18 7 10 mph 1010.2mb 70f 78f
9:12 7 10 mph 1010.1mb 70f 79f
9:06 8 14 mph 1010.1mb 71f 78f
9:00 7 10 mph 1010.1mb 70f 79f
8:54 8 13 mph 1010.1mb 71f 78f
8:48 5 8 mph 1010mb 70f 78f
8:42 6 9 mph 1010.1mb 71f 78f
8:36 7 10 mph 1010.3mb 73f 77f
8:30 6 10 mph 1010.3mb 72f 77f
8:24 7 9 mph 1010.2mb 71f 77f
8:18 6 9 mph 1010.1mb 70f 76f
8:12 8 11 mph 1010.2mb 70f 76f
8:06 6 8 mph 1010.2mb 70f 76f
8:00 6 7 mph 1010.1mb 71f 76f
7:54 6 9 mph 1010.1mb 71f 76f
7:48 6 8 mph 1010.1mb 73f 75f
7:42 6 8 mph 1010.1mb 73f 75f
7:36 6 9 mph 1010.1mb 73f 75f
7:30 6 8 mph 1010.1mb 73f 74f
7:24 5 7 mph 1010mb 73f 74f
7:18 6 8 mph 1010.1mb 73f 74f
7:12 2 5 mph 1010.2mb 73f 74f
7:06 3 5 mph 1010.1mb 73f 74f
7:00 3 6 mph 1010.1mb 73f 73f
6:54 3 6 mph 1010.1mb 73f 73f
6:48 3 6 mph 1010.1mb 73f 73f
6:42 3 5 mph 1010mb 73f 73f
6:36 3 5 mph 1010mb 73f 72f
6:30 3 5 mph 1010mb 73f 72f
6:24 3 6 mph 1010mb 73f 72f
6:18 5 6 mph 1010.1mb 73f 72f
6:12 3 6 mph 1010.1mb 73f 72f
6:06 3 5 mph 1010.2mb 73f 71f
6:00 1 2 mph 1010.2mb 73f 70f
5:54 1 2 mph 1010.1mb 74f 70f
5:48 2
mph
1010mb 74f 70f
5:42  -  2 mph 1009.9mb 74f 70f
5:36 2 3 mph 1009.9mb 74f 70f
5:30 2
mph
1009.9mb 74f 70f
5:24 1 2 mph 1009.9mb 74f 70f
5:18 1 2 mph 1009.9mb 73f 70f
5:12 1 3 mph 1009.8mb 73f 70f
5:06 2 3 mph 1009.8mb 73f 70f
5:00 2
mph
1009.7mb 73f 71f
4:54  -  2 mph 1009.7mb 73f 71f
4:48 2 3 mph 1009.6mb 72f 71f
4:42 1
mph
1009.5mb 72f 71f
4:36 2 3 mph 1009.5mb 72f 71f
4:30 3 5 mph 1009.5mb 72f 71f
4:24 5
mph
1009.6mb 73f 71f
4:18 2 3 mph 1009.7mb 73f 71f
4:12  -  1 mph 1009.7mb 73f 71f
4:06  -  1 mph 1009.7mb 73f 70f
4:00 1 2 mph 1009.7mb 73f 70f
3:54 2
mph
1009.7mb 73f 70f
3:48  -  1 mph 1009.8mb 73f 70f
3:42  -  1 mph 1009.7mb 73f 70f
3:36 1 5 mph 1009.7mb 73f 71f
3:30 2 3 mph 1009.7mb 73f 71f
3:24 2
mph
1009.7mb 73f 71f
3:18  -  1 mph 1009.6mb 73f 71f
3:12  -  1 mph 1009.6mb 73f 71f
3:06 2 3 mph 1009.5mb 73f 71f
3:00 1 2 mph 1009.5mb 73f 71f
2:54 2
mph
1009.6mb 73f 72f
2:48 2 3 mph 1009.6mb 73f 72f
2:42 1 2 mph 1009.6mb 73f 71f
2:36  -  1 mph 1009.6mb 73f 71f
2:30  -  2 mph 1009.7mb 73f 71f
2:24 1 2 mph 1009.8mb 73f 71f
2:18 1 2 mph 1009.8mb 73f 71f
2:12 2 3 mph 1009.8mb 73f 72f
2:06 1 2 mph 1009.9mb 73f 72f
2:00 1 2 mph 1010.1mb 73f 72f
1:54 1 2 mph 1010.1mb 73f 72f
1:48 1 3 mph 1010.2mb 72f 72f
1:42 2 3 mph 1010.2mb 72f 72f
1:36 2 3 mph 1010.3mb 72f 72f
1:30 2 3 mph 1010.4mb 72f 72f
1:24 3
mph
1010.4mb 72f 72f
1:18 2 5 mph 1010.5mb 72f 72f
1:12 3 5 mph 1010.6mb 72f 72f
1:06 5 6 mph 1010.5mb 72f 72f
1:00 5 6 mph 1010.5mb 72f 72f
12:54 5 6 mph 1010.6mb 72f 72f
12:48 3 5 mph 1010.6mb 72f 72f
12:42 3 5 mph 1010.5mb 72f 72f
12:36 2 3 mph 1010.6mb 72f 72f
12:30 1 2 mph 1010.7mb 72f 72f
12:24 1
mph
1010.7mb 72f 72f
12:18  -  2 mph 1010.5mb 72f 71f
12:12 2
mph
1010.5mb 72f 71f
12:06 2 3 mph 1010.5mb 72f 72f
12:00 2 5 mph 1010.6mb 72f 72f
Dom 08/02 11:54 3
mph
1010.8mb 72f 72f
11:48 2 5 mph 1010.8mb 72f 73f
11:42 3 5 mph 1010.6mb 72f 73f
11:36 3
mph
1010.6mb 72f 73f
11:30 3 6 mph 1010.4mb 72f 73f
11:24 5 7 mph 1010.3mb 72f 73f
11:18 5 6 mph 1010.4mb 72f 72f
11:12 6 7 mph 1010.5mb 71f 72f
11:06 6 7 mph 1010.6mb 71f 72f
11:00 6 7 mph 1010.8mb 70f 73f
10:54 6 8 mph 1010.8mb 71f 73f
10:48 5 6 mph 1011mb 71f 73f
10:42 6 7 mph 1011.1mb 71f 73f
10:36 6 8 mph 1011.2mb 71f 73f
10:30 7 8 mph 1011.3mb 72f 73f
10:24 6
mph
1011.3mb 72f 73f
10:18 5 6 mph 1011.3mb 73f 73f
10:12 5 7 mph 1011.5mb 73f 73f
10:06 5 6 mph 1011.5mb 73f 74f
10:00 5 6 mph 1011.7mb 74f 74f
9:54 3 5 mph 1011.7mb 74f 74f
9:48 3 5 mph 1011.8mb 74f 74f
9:42 3 5 mph 1011.7mb 74f 74f
9:36 3 5 mph 1011.7mb 74f 74f
9:30 3 6 mph 1011.7mb 74f 74f
9:24 5 6 mph 1011.6mb 74f 74f
9:18 5 6 mph 1011.8mb 74f 74f
9:12 5
mph
1011.8mb 74f 74f
9:06 3 6 mph 1011.7mb 74f 74f
9:00 6 7 mph 1011.6mb 73f 74f
8:54 6 7 mph 1011.4mb 73f 73f
8:48 6 8 mph 1011.3mb 72f 74f
8:42 6 7 mph 1011.3mb 72f 74f
8:36 6 8 mph 1011.2mb 71f 74f
8:30 7 8 mph 1011.1mb 71f 74f
8:24 8 10 mph 1011.1mb 71f 74f
8:18 7 9 mph 1010.9mb 73f 74f
8:12 6 8 mph 1011mb 74f 75f
8:06 6 7 mph 1010.9mb 74f 74f
8:00 7 10 mph 1010.9mb 74f 74f
7:54 8 10 mph 1010.9mb 74f 74f
7:48 9 11 mph 1010.9mb 73f 74f
7:42 9 11 mph 1010.9mb 73f 75f
7:36 9 13 mph 1010.9mb 71f 75f
7:30 7 14 mph 1010.9mb 72f 77f
7:24 8 13 mph 1010.9mb 72f 78f
7:18 9 15 mph 1010.8mb 73f 78f
7:12 8 11 mph 1010.8mb 73f 78f
7:06 8 13 mph 1010.9mb 73f 78f
7:00 8 10 mph 1010.9mb 73f 77f
6:54 9 11 mph 1011mb 74f 76f
6:48 9 13 mph 1011.1mb 74f 77f
6:42 8 10 mph 1011mb 74f 77f
6:36 8 9 mph 1010.9mb 74f 77f
6:30 7 10 mph 1011mb 74f 77f
6:24 10 13 mph 1011.1mb 75f 78f
6:18 13 14 mph 1011.2mb 75f 78f
6:12 8 10 mph 1011.2mb 75f 79f
6:06 8 11 mph 1011.2mb 74f 80f
6:00 7 9 mph 1011.2mb 74f 81f
5:54 6 10 mph 1011.3mb 74f 80f
5:48 9 11 mph 1011.3mb 74f 80f
5:42 9 11 mph 1011.3mb 74f 80f
5:36 9 13 mph 1011.4mb 74f 81f
5:30 9 11 mph 1011.4mb 74f 81f
5:24 7 11 mph 1011.4mb 73f 81f
5:18 8 10 mph 1011.5mb 73f 80f
5:12 7 8 mph 1011.6mb 74f 79f
5:06 7 10 mph 1011.7mb 74f 79f
5:00 9 11 mph 1011.7mb 73f 79f
4:54 10 13 mph 1011.6mb 74f 78f
4:48 9 13 mph 1011.6mb 74f 79f
4:42 10 11 mph 1011.6mb 73f 79f
4:36 8 10 mph 1011.5mb 73f 79f
4:30 8 11 mph 1011.5mb 73f 80f
4:24 10 11 mph 1011.5mb 73f 79f
4:18 9 11 mph 1011.6mb 73f 79f
4:12 9 11 mph 1011.6mb 73f 80f
4:06 9 11 mph 1011.7mb 71f 79f
4:00 9 11 mph 1011.7mb 71f 79f
3:54 9 11 mph 1011.7mb 72f 79f
3:48 11 13 mph 1011.7mb 72f 79f
3:42 10 13 mph 1011.7mb 71f 79f
3:36 9 11 mph 1011.5mb 71f 79f
3:30 8 10 mph 1011.5mb 73f 79f
3:24 9 13 mph 1011.5mb 74f 78f
3:18 9 13 mph 1011.5mb 73f 79f
3:12 9 13 mph 1011.6mb 73f 79f
3:06 11 15 mph 1011.7mb 74f 79f
3:00 11 14 mph 1011.6mb 73f 79f
2:54 8 11 mph 1011.7mb 73f 79f
2:48 8 11 mph 1011.7mb 74f 79f
2:42 10 15 mph 1011.8mb 74f 78f
2:36 13 15 mph 1011.8mb 74f 78f
2:30 14 16 mph 1011.8mb 73f 78f
2:24 11 16 mph 1011.9mb 73f 78f
2:18 13 16 mph 1011.9mb 73f 77f
2:12 10 15 mph 1011.9mb 73f 79f
2:06 10 14 mph 1011.9mb 73f 82f
2:00 7 10 mph 1011.9mb 73f 83f
1:54 7 13 mph 1011.8mb 73f 83f
1:48 8 13 mph 1011.9mb 73f 82f
1:42 9 13 mph 1012mb 73f 82f
1:36 6 9 mph 1011.9mb 73f 84f
1:30 7 13 mph 1011.9mb 73f 83f
1:24 5 11 mph 1011.9mb 74f 83f
1:18 8 14 mph 1012.1mb 73f 82f
1:12 6 11 mph 1012.1mb 72f 82f
1:06 7 11 mph 1012.2mb 71f 82f
1:00 9 11 mph 1012.2mb 71f 81f
12:54 7 11 mph 1012.3mb 71f 82f
12:48 8 13 mph 1012.3mb 71f 82f
12:42 3 10 mph 1012.3mb 70f 83f
12:36 6 11 mph 1012.3mb 71f 81f
12:30 6 10 mph 1012.3mb 71f 80f
12:24 7 11 mph 1012.4mb 71f 80f
12:18 6 9 mph 1012.4mb 71f 80f
12:12 8 9 mph 1012.4mb 71f 80f
12:06 9 13 mph 1012.5mb 71f 79f
12:00 8 10 mph 1012.5mb 71f 79f
11:54 7 10 mph 1012.5mb 71f 79f
11:48 9 11 mph 1012.5mb 71f 79f
11:42 9 13 mph 1012.5mb 71f 78f
11:36 8 10 mph 1012.6mb 71f 78f
11:30 6 9 mph 1012.6mb 71f 79f
11:24 7 9 mph 1012.6mb 71f 80f
11:18 7 10 mph 1012.6mb 71f 79f
11:12 8 11 mph 1012.5mb 71f 78f
11:06 9 11 mph 1012.5mb 71f 77f
11:00 9 13 mph 1012.4mb 71f 77f
10:54 9 13 mph 1012.4mb 72f 77f
10:48 8 10 mph 1012.4mb 72f 77f
10:42 8 9 mph 1012.4mb 72f 77f
10:36 8 9 mph 1012.3mb 72f 77f
10:30 8 9 mph 1012.3mb 71f 76f
10:24 6 9 mph 1012.3mb 70f 76f
10:18 8 10 mph 1012.3mb 70f 75f
10:12 8 11 mph 1012.2mb 71f 75f
10:06 9 10 mph 1012.2mb 71f 74f
10:00 9 11 mph 1012.2mb 70f 74f
9:54 8 10 mph 1012.2mb 71f 75f
9:48 6 7 mph 1012.1mb 71f 75f
9:42 2
mph
1012.1mb 71f 74f
9:36 1 2 mph 1012mb 72f 74f
9:30 2
mph
1011.9mb 72f 74f
9:24 2
mph
1011.9mb 71f 74f
9:18 1
mph
1011.9mb 71f 74f
9:12 1 2 mph 1011.9mb 71f 74f
9:06 1 2 mph 1011.9mb 71f 73f
9:00 2 3 mph 1011.9mb 70f 72f
8:54 2 3 mph 1011.9mb 70f 71f
8:48 2
mph
1011.8mb 70f 71f
8:42 2 3 mph 1011.7mb 70f 71f
8:36 1 2 mph 1011.8mb 70f 71f
8:30 2
mph
1011.7mb 70f 72f
8:24 2
mph
1011.6mb 70f 71f
8:18 1 2 mph 1011.5mb 70f 70f
8:12 2 3 mph 1011.5mb 71f 69f
8:06 2 3 mph 1011.5mb 71f 69f
8:00 1 3 mph 1011.5mb 71f 70f
7:54 2 3 mph 1011.5mb 71f 71f
7:48 2 3 mph 1011.5mb 71f 69f
7:42 1 2 mph 1011.5mb 71f 69f
7:36 1 2 mph 1011.5mb 71f 70f
7:30 1 2 mph 1011.5mb 71f 69f
7:24 2 3 mph 1011.4mb 71f 69f
7:18 2 3 mph 1011.4mb 71f 68f
7:12 2 3 mph 1011.4mb 71f 68f
7:06 2 3 mph 1011.3mb 71f 68f
7:00 2 3 mph 1011.3mb 71f 68f
6:54 2 3 mph 1011.2mb 72f 68f
6:48  -  3 mph 1011.2mb 73f 69f
6:42 3 5 mph 1011.1mb 73f 67f
6:36 3 5 mph 1011mb 73f 67f
6:30 5 6 mph 1010.9mb 73f 66f
6:24 3 5 mph 1010.9mb 73f 66f
6:18 3 6 mph 1010.8mb 73f 66f
6:12 2 6 mph 1010.7mb 73f 66f
6:06 5 6 mph 1010.6mb 74f 65f
6:00 2 5 mph 1010.5mb 73f 65f
5:54 2 3 mph 1010.4mb 73f 65f
5:48 2 3 mph 1010.4mb 74f 65f
5:42 2 3 mph 1010.3mb 74f 65f
5:36 3
mph
1010.2mb 74f 65f
5:30 2 3 mph 1010.1mb 74f 65f
5:24 1 2 mph 1010.1mb 74f 65f
5:18 2
mph
1010.1mb 74f 65f
5:12 1 2 mph 1010.1mb 74f 65f
5:06 1 2 mph 1010.1mb 74f 65f
5:00 1 2 mph 1010mb 74f 65f
4:54 2
mph
1010.1mb 74f 65f
4:48 2
mph
1010mb 74f 66f
4:42 2 3 mph 1010mb 74f 66f
4:36 2
mph
1010mb 74f 66f
4:30 2
mph
1009.9mb 74f 66f
4:24 2 3 mph 1009.9mb 74f 66f
4:18 2 3 mph 1010mb 74f 66f
4:12 2 5 mph 1009.9mb 74f 67f
4:06 2 3 mph 1009.9mb 74f 67f
4:00  -  3 mph 1009.8mb 74f 67f
3:54 2 3 mph 1009.8mb 74f 67f
3:48 2 3 mph 1009.9mb 74f 67f
3:42 2 3 mph 1009.8mb 74f 67f
3:36 2 3 mph 1009.8mb 74f 67f
3:30 1 2 mph 1009.8mb 74f 67f
3:24 1 2 mph 1009.8mb 74f 67f
3:18 2
mph
1009.9mb 74f 67f
3:12 1 3 mph 1009.8mb 74f 67f
3:06 2 3 mph 1009.8mb 74f 67f
3:00 1 2 mph 1009.7mb 74f 68f
2:54 2 5 mph 1009.7mb 74f 68f
2:48  -  mph 1009.7mb 74f -
2:42 1 5 mph 1009.6mb 74f -
2:36 3 6 mph 1009.6mb 74f -
2:30 2 5 mph 1009.6mb 74f 68f
2:24 2 5 mph 1009.6mb 74f 69f
2:18 2 3 mph 1009.6mb 74f 69f
2:12 2 5 mph 1009.6mb 74f 69f
2:06 3 5 mph 1009.6mb 74f 69f
2:00 2 3 mph 1009.6mb 74f 69f
1:54  -  2 mph 1009.7mb 74f 69f
1:48 2 3 mph 1009.7mb 74f 69f
1:42 1 2 mph 1009.6mb 74f 69f
1:36 1 2 mph 1009.6mb 74f 69f
1:30 1 2 mph 1009.5mb 74f 69f
1:24  -  2 mph 1009.5mb 73f 70f
1:18 1 2 mph 1009.5mb 73f 70f
1:12 1 2 mph 1009.4mb 73f 70f
1:06 1 3 mph 1009.4mb 73f 70f
1:00 1 3 mph 1009.4mb 73f 70f
12:54 1 3 mph 1009.3mb 73f 70f
12:48 2 5 mph 1009.3mb 73f 70f
12:42 3 5 mph 1009.2mb 73f 70f
12:36 2 3 mph 1009.2mb 72f 70f
12:30 1 5 mph 1009.1mb 72f 70f
12:24 3 5 mph 1009.1mb 72f 70f
12:18 3 5 mph 1009mb 72f 70f
12:12 2 5 mph 1009mb 72f 71f
12:06 2 3 mph 1009.1mb 72f 71f
12:00 3 5 mph 1009.1mb 72f 71f
Sáb 08/01 11:54 3 5 mph 1009.1mb 72f 71f
11:48 3 6 mph 1009.1mb 72f -
11:42 2 5 mph 1009mb 73f -
11:36 5 7 mph 1009mb 72f -
11:30 5 7 mph 1009.1mb 72f 71f
11:24 3 9 mph 1009.1mb 72f 71f
11:18 3 6 mph 1008.9mb 72f 71f
11:12 6 7 mph 1008.8mb 72f 72f
11:06 3 5 mph 1008.8mb 72f 73f
11:00 2 3 mph 1008.7mb 72f 73f
10:54 2
mph
1008.7mb 72f 74f
10:48 1 2 mph 1008.7mb 72f 73f
10:42  -  2 mph 1008.7mb 72f 73f
10:36 2 3 mph 1008.7mb 72f 73f
10:30 1 2 mph 1008.6mb 72f 74f
10:24 2 3 mph 1008.6mb 72f 74f
10:18 1 2 mph 1008.6mb 72f 74f
10:12 1 2 mph 1008.5mb 72f 74f
10:06  -  1 mph 1008.5mb 72f 75f
10:00  -  2 mph 1008.4mb 72f 76f
9:54 1
mph
1008.4mb 72f 75f
9:48 1 2 mph 1008.4mb 72f 75f
9:42 1 2 mph 1008.4mb 72f 75f
9:36  -  1 mph 1008.3mb 72f 75f
9:30 1 2 mph 1008.3mb 71f 75f
9:24 1 2 mph 1008.2mb 71f 76f
9:18 1 2 mph 1008.2mb 72f 76f
9:12 2 3 mph 1008.1mb 72f 76f
9:06 2 5 mph 1008mb 72f 76f
9:00 5 6 mph 1007.9mb 72f 76f
8:54 5 6 mph 1007.9mb 71f 76f
8:48 5
mph
1007.8mb 71f 76f
8:42 3 6 mph 1007.7mb 71f 76f
8:36 5 7 mph 1007.7mb 71f 77f
8:30 6 10 mph 1007.7mb 71f 77f
8:24 8 10 mph 1007.6mb 71f 77f
8:18 2 5 mph 1007.5mb 71f 78f
8:12 1 2 mph 1007.4mb 71f 77f
8:06 2 3 mph 1007.4mb 71f 77f
8:00 2 3 mph 1007.3mb 71f 78f
7:54  -  1 mph 1007.2mb 71f 78f
7:48 1 2 mph 1007.1mb 71f 78f
7:42 1 2 mph 1007mb 71f 78f
7:36 1 3 mph 1006.8mb 73f 79f
7:30 2 5 mph 1006.8mb 73f 80f
7:24 2 5 mph 1006.7mb 72f 80f
7:18 2 5 mph 1006.7mb 72f 80f
7:12 2 5 mph 1006.6mb 71f 80f
7:06 3 5 mph 1006.5mb 71f 81f
7:00 2 5 mph 1006.5mb 72f 82f
6:54 3 6 mph 1006.5mb 71f 82f
6:48 3 7 mph 1006.5mb 72f 82f
6:42 3 5 mph 1006.5mb 73f 82f
6:36 2 6 mph 1006.4mb 73f 82f
6:30 3 6 mph 1006.4mb 73f 82f
6:24 5 7 mph 1006.4mb 73f 81f
6:18 6 7 mph 1006.4mb 73f 81f
6:12 5 9 mph 1006.4mb 73f 81f
6:06 7 11 mph 1006.3mb 73f 81f
6:00 6 13 mph 1006.3mb 73f 82f
5:54 6 13 mph 1006.3mb 74f 84f
5:48 6 14 mph 1006.1mb 75f 85f
5:42 8 21 mph 1006.1mb 75f 85f
5:36 9 17 mph 1006.1mb 75f 86f
5:30 7 14 mph 1006mb 75f 86f
5:24 8 16 mph 1006mb 75f 86f
5:18 14 17 mph 1006mb 74f 86f
5:12 7 15 mph 1006mb 74f 87f
5:06 10 17 mph 1006mb 74f 87f
5:00 8 17 mph 1006mb 75f 87f
4:54 11 16 mph 1006mb 74f 86f
4:48 11 16 mph 1005.8mb 74f 87f
4:42 7 18 mph 1005.8mb 74f 87f
4:36 11 20 mph 1005.8mb 74f 87f
4:30 9 14 mph 1005.8mb 74f 87f
4:24 10 16 mph 1005.8mb 74f 87f
4:18 10 20 mph 1005.8mb 74f 88f
4:12 10 20 mph 1005.9mb 74f 87f
4:06 8 18 mph 1005.9mb 74f 88f
4:00 11 18 mph 1006mb 75f 87f
3:54 9 16 mph 1006mb 74f 87f
3:48 8 17 mph 1006mb 75f 87f
3:42 8 14 mph 1006mb 73f 87f
3:36 9 18 mph 1006mb 73f 86f
3:30 9 13 mph 1006mb 73f 86f
3:24 8 15 mph 1006mb 73f 87f
3:18 8 17 mph 1006.1mb 73f 86f
3:12 10 17 mph 1006.1mb 73f 86f
3:06 11 16 mph 1006.1mb 73f 85f
3:00 11 15 mph 1006mb 72f 86f
2:54 10 14 mph 1006mb 72f 86f
2:48 9 16 mph 1006mb 73f 86f
2:42 9 13 mph 1006.2mb 73f 86f
2:36 7 14 mph 1006.3mb 73f 86f
2:30 11 15 mph 1006.3mb 73f 85f
2:24 8 15 mph 1006.4mb 73f 86f
2:18 9 15 mph 1006.5mb 73f 85f
2:12 9 14 mph 1006.6mb 73f 85f
2:06 9 14 mph 1006.5mb 72f 85f
2:00 10 14 mph 1006.6mb 72f 85f
1:54 9 14 mph 1006.6mb 72f 86f
1:48 11 16 mph 1006.6mb 72f 85f
1:42 5 14 mph 1006.6mb 72f 86f
1:36 7 16 mph 1006.7mb 73f 87f
1:30 8 15 mph 1006.7mb 73f 87f
1:24 8 15 mph 1006.8mb 73f 87f
1:18 8 18 mph 1006.9mb 72f 86f
1:12 8 16 mph 1006.9mb 72f 86f
1:06 9 15 mph 1007mb 72f 85f
1:00 7 21 mph 1007mb 73f 86f
12:54 8 15 mph 1007mb 72f 85f
12:48 7 14 mph 1007.1mb 72f 85f
12:42 7 15 mph 1007.1mb 72f 85f
12:36 7 10 mph 1007.1mb 73f 85f
12:30 8 13 mph 1007.1mb 72f 84f
12:24 7 14 mph 1007.2mb 72f 83f
12:18 8 13 mph 1007.3mb 73f 82f
12:12 8 16 mph 1007.3mb 72f 82f
12:06 10 14 mph 1007.3mb 72f 81f
12:00 8 13 mph 1007.3mb 71f 81f
11:54 8 13 mph 1007.3mb 71f 81f
11:48 6 10 mph 1007.1mb 72f 82f
11:42 7 11 mph 1007.1mb 72f 82f
11:36 8 11 mph 1007.1mb 71f 81f
11:30 6 9 mph 1007.1mb 71f 81f
11:24 6 10 mph 1007.1mb 72f 81f
11:18 6 9 mph 1007.1mb 72f 81f
11:12 8 10 mph 1007mb 72f 81f
11:06 7 10 mph 1006.9mb 72f 81f
11:00 8 10 mph 1006.9mb 72f 80f
10:54 8 10 mph 1006.9mb 72f 80f
10:48 9 10 mph 1006.9mb 72f 80f
10:42 8 10 mph 1006.9mb 72f 80f
10:36 8 10 mph 1006.9mb 72f 80f
10:30 7 8 mph 1006.9mb 72f 80f
10:24 6 8 mph 1006.9mb 72f 82f
10:18 7 11 mph 1007.1mb 72f 82f
10:12 2 9 mph 1007.2mb 72f 81f
10:06 5 10 mph 1007.3mb 72f 82f
10:00 6 13 mph 1007.3mb 72f 82f
9:54 5 9 mph 1007.3mb 72f 81f
9:48 5 10 mph 1007.3mb 72f 81f
9:42 6 9 mph 1007.4mb 72f 80f
9:36 7 10 mph 1007.1mb 72f 80f
9:30 7 9 mph 1007.1mb 72f 80f
9:24 5 9 mph 1007.1mb 72f 80f
9:18 6 9 mph 1007.1mb 72f 79f
9:12 7 13 mph 1007.2mb 72f 79f
9:06 5 11 mph 1007.2mb 71f 79f
9:00 6 9 mph 1007.2mb 72f 79f
8:54 6 9 mph 1007.2mb 71f 79f
8:48 7 8 mph 1007.2mb 71f 78f
8:42 6 11 mph 1007.2mb 71f 78f
8:36 3 7 mph 1007.3mb 71f 78f
8:30 3 8 mph 1007.2mb 71f 78f
8:24 5 8 mph 1007.2mb 70f 77f
8:18 8 10 mph 1007.3mb 70f 76f
8:12 6 8 mph 1007.2mb 70f 76f
8:06 5 7 mph 1007mb 70f 76f
8:00 3 6 mph 1007mb 70f 76f
7:54 5 8 mph 1007.1mb 70f 75f
7:48 3 6 mph 1007mb 70f 75f
7:42 1 3 mph 1007.1mb 70f 74f
7:36  -  1 mph 1007.1mb 70f 74f
7:30  -  1 mph 1007.2mb 70f 73f
7:24  -  1 mph 1007.3mb 70f 73f
7:18 1
mph
1007.3mb 70f 73f
7:12  -  1 mph 1007.3mb 71f 74f
7:06  -  1 mph 1007.2mb 72f 74f
7:00  -  mph 1007.1mb 72f 73f
6:54  -  1 mph 1007.1mb 72f 72f
6:48  -  1 mph 1007mb 73f 71f
6:42  -  1 mph 1007.1mb 73f 71f
6:36 1 2 mph 1007.1mb 73f 70f
6:30 1 2 mph 1007.1mb 73f 70f
6:24 1
mph
1007.1mb 74f 70f
6:18  -  1 mph 1007.1mb 74f 69f
6:12  -  2 mph 1007mb 74f 69f
6:06 2
mph
1006.9mb 74f 69f
6:00 1 2 mph 1006.9mb 74f 69f
5:54 2
mph
1006.9mb 74f 69f
5:48 2
mph
1006.9mb 74f 69f
5:42  -  2 mph 1006.8mb 74f 68f
5:36 1 2 mph 1006.9mb 74f 68f
5:30 1 2 mph 1006.9mb 74f 68f
5:24 1 2 mph 1006.9mb 74f 68f
5:18 1 2 mph 1006.9mb 74f 68f
5:12 2
mph
1006.9mb 74f 68f
5:06 2
mph
1006.9mb 74f 68f
5:00 2 3 mph 1006.8mb 74f 68f
4:54 1 3 mph 1006.9mb 74f 68f
4:48 2 3 mph 1007mb 74f 68f
4:42 3 5 mph 1007mb 74f 69f
4:36 3 5 mph 1007mb 74f 69f
4:30 2 3 mph 1007mb 74f 69f
4:24 1 2 mph 1007mb 74f 69f
4:18 2
mph
1007.1mb 74f 69f
4:12 2 3 mph 1007.2mb 74f 69f
4:06 3
mph
1007.3mb 74f 69f
4:00 1 2 mph 1007.3mb 74f 69f
3:54  -  2 mph 1007.4mb 74f 69f
3:48 1 2 mph 1007.5mb 74f 69f
3:42 1 2 mph 1007.5mb 74f 69f
3:36  -  1 mph 1007.5mb 74f 68f
3:30  -  1 mph 1007.5mb 74f 68f
3:24  -  2 mph 1007.6mb 74f 68f
3:18 1 3 mph 1007.5mb 74f 68f
3:12 2 3 mph 1007.6mb 74f 68f
3:06  -  1 mph 1007.6mb 74f 69f
3:00 1 2 mph 1007.6mb 74f 69f
2:54 2
mph
1007.6mb 74f 69f
2:48  -  mph 1007.6mb 74f 69f
2:42  -  mph 1007.6mb 74f 69f
2:36  -  mph 1007.6mb 74f 69f
2:30 3 5 mph 1007.7mb 74f 69f
2:24 3 5 mph 1007.7mb 74f 69f
2:18 2 3 mph 1007.8mb 74f 69f
2:12 1 2 mph 1007.9mb 74f 69f
2:06 1 3 mph 1007.9mb 74f 69f
2:00 2 3 mph 1008mb 74f 69f
1:54 2 3 mph 1008mb 74f 69f
1:48 2 3 mph 1008.1mb 74f 69f
1:42 2 3 mph 1008.1mb 74f 69f
1:36 2 3 mph 1008.2mb 74f 69f
1:30  -  1 mph 1008.3mb 74f 69f
1:24  -  2 mph 1008.3mb 74f 69f
1:18 2 3 mph 1008.4mb 74f 69f
1:12 2
mph
1008.5mb 74f 69f
1:06 2 3 mph 1008.5mb 74f 69f
1:00  -  1 mph 1008.6mb 74f 69f
12:54 2 5 mph 1008.6mb 74f 69f
12:48 3 5 mph 1008.6mb 74f 69f
12:42 3 5 mph 1008.7mb 74f 70f
12:36 3 5 mph 1008.7mb 74f 70f
12:30 3 5 mph 1008.7mb 73f 70f
12:24 3 5 mph 1008.8mb 73f 70f
12:18 3 5 mph 1008.7mb 73f 70f
12:12 2 3 mph 1008.8mb 73f 71f
12:06 3
mph
1008.8mb 73f 71f
12:00 3
mph
1008.8mb 73f 71f
Sex 07/31 11:54 2
mph
1008.8mb 72f 71f
11:48 1
mph
1008.9mb 72f 72f
11:42  -  1 mph 1008.9mb 72f 72f
11:36  -  1 mph 1008.8mb 72f 72f
11:30  -  2 mph 1008.8mb 72f 72f
11:24  -  1 mph 1008.8mb 72f 72f
11:18  -  1 mph 1008.7mb 72f 72f
11:12  -  1 mph 1008.7mb 72f 72f
11:06  -  2 mph 1008.7mb 73f 72f
11:00 2 3 mph 1008.7mb 73f 72f
10:54 1 3 mph 1008.7mb 72f 73f
10:48 1 3 mph 1008.7mb 72f 72f
10:42 3
mph
1008.6mb 72f 72f
10:36 3
mph
1008.6mb 72f 72f
10:30 3 6 mph 1008.5mb 73f 73f
10:24 5
mph
1008.5mb 73f 73f
10:18 3 5 mph 1008.4mb 73f 73f
10:12 2 5 mph 1008.4mb 73f 73f
10:06 2
mph
1008.4mb 73f 73f
10:00 1 2 mph 1008.4mb 73f 74f
9:54 2 6 mph 1008.4mb 73f 74f
9:48 5 6 mph 1008.3mb 73f 74f
9:42 5 6 mph 1008.3mb 73f 74f
9:36 5 6 mph 1008.3mb 73f 75f
9:30 3 5 mph 1008.2mb 73f 75f
9:24 3 6 mph 1008.2mb 73f 75f
9:18 5 6 mph 1008.1mb 73f 75f
9:12 6
mph
1008mb 73f 76f
9:06 3 5 mph 1007.9mb 73f 76f
9:00 3 5 mph 1007.8mb 73f 76f
8:54 3 5 mph 1007.8mb 73f 77f
8:48 3 6 mph 1007.8mb 72f 77f
8:42 2 3 mph 1007.7mb 72f 79f
8:36 1 3 mph 1007.6mb 72f 81f
8:30 2 3 mph 1007.6mb 72f 81f
8:24 2 3 mph 1007.5mb 72f 81f
8:18 2 5 mph 1007.5mb 73f 81f
8:12 2 5 mph 1007.5mb 74f 82f
8:06 2 3 mph 1007.4mb 73f 82f
8:00 2 3 mph 1007.4mb 72f 82f
7:54 2 5 mph 1007.3mb 72f 82f
7:48 3 5 mph 1007.3mb 74f 82f
7:42 3 5 mph 1007.3mb 74f 83f
7:36 3 6 mph 1007.3mb 73f 83f
7:00 7 10 mph 1007.3mb 74f 84f
6:54 7 9 mph 1007.2mb 73f 84f
6:48 6 8 mph 1007.1mb 73f 85f
6:42 6 9 mph 1007.1mb 74f 85f
6:36 6 8 mph 1007.1mb 74f 85f
6:30 3 9 mph 1007mb 74f 85f
6:24 5 13 mph 1007mb 74f 85f
6:18 8 13 mph 1007.1mb 73f 85f
6:12 6 13 mph 1007.1mb 73f 85f
6:06 5 10 mph 1007.1mb 73f 85f
6:00 10 13 mph 1007.1mb 73f 85f
5:54 7 11 mph 1007.1mb 74f 85f
5:48 10 14 mph 1007.2mb 73f 84f
5:42 10 15 mph 1007.3mb 73f 85f
5:36 9 15 mph 1007.2mb 74f 85f
5:30 11 15 mph 1007.3mb 73f 85f
5:24 8 15 mph 1007.2mb 73f 85f
5:18 7 11 mph 1007.2mb 73f 85f
5:12 8 17 mph 1007.3mb 74f 85f
5:06 9 14 mph 1007.4mb 74f 85f
5:00 8 16 mph 1007.4mb 74f 85f
4:54 9 15 mph 1007.5mb 74f 85f